createdAt,value
2022-08-16T00:00:24.242Z,76.02
2022-08-16T00:02:51.778Z,75.26
2022-08-16T00:05:19.594Z,75.46
2022-08-16T00:07:46.894Z,74.68
2022-08-16T00:10:20.752Z,74.94
2022-08-16T00:12:48.247Z,73.93
2022-08-16T00:15:21.657Z,74.63
2022-08-16T00:17:56.065Z,74.70
2022-08-16T00:20:24.428Z,74.10
2022-08-16T00:22:51.726Z,73.90
2022-08-16T00:25:19.288Z,73.55
2022-08-16T00:28:06.288Z,74.18
2022-08-16T00:30:33.336Z,74.35
2022-08-16T00:33:02.133Z,74.71
2022-08-16T00:35:34.864Z,75.17
2022-08-16T00:38:40.560Z,75.93
2022-08-16T00:40:53.951Z,76.58
2022-08-16T00:43:42.711Z,77.57
2022-08-16T00:46:22.447Z,77.06
2022-08-16T00:49:00.918Z,77.49
2022-08-16T00:51:29.548Z,77.33
2022-08-16T00:53:56.612Z,77.40
2022-08-16T00:56:55.957Z,77.15
2022-08-16T00:59:12.095Z,77.76
2022-08-16T01:01:42.459Z,77.32
2022-08-16T01:04:28.984Z,76.22
2022-08-16T01:07:02.092Z,75.66
2022-08-16T01:09:33.491Z,75.64
2022-08-16T01:12:01.389Z,75.54
2022-08-16T01:14:30.126Z,75.48
2022-08-16T01:16:58.168Z,75.26
2022-08-16T01:19:29.295Z,75.49
2022-08-16T01:22:47.836Z,76.16
2022-08-16T01:24:55.019Z,75.86
2022-08-16T01:27:27.793Z,76.67
2022-08-16T01:30:02.307Z,77.71
2022-08-16T01:32:33.977Z,77.33
2022-08-16T01:35:03.068Z,77.22
2022-08-16T01:37:35.494Z,76.60
2022-08-16T01:40:02.915Z,76.67
2022-08-16T01:42:34.280Z,76.98
2022-08-16T01:45:00.893Z,76.78
2022-08-16T01:47:27.740Z,77.54
2022-08-16T01:50:42.406Z,77.68
2022-08-16T01:52:46.476Z,78.21
2022-08-16T01:55:25.080Z,77.80
2022-08-16T01:57:56.433Z,78.55
2022-08-16T02:00:29.133Z,78.81
2022-08-16T02:02:57.713Z,78.56
2022-08-16T02:05:24.325Z,78.81
2022-08-16T02:07:52.001Z,78.44
2022-08-16T02:10:20.221Z,79.03
2022-08-16T02:12:51.925Z,79.45
2022-08-16T02:15:25.228Z,80.10
2022-08-16T02:17:54.247Z,80.10
2022-08-16T02:20:26.199Z,80.16
2022-08-16T02:22:55.347Z,80.02
2022-08-16T02:25:22.532Z,80.36
2022-08-16T02:27:51.144Z,79.76
2022-08-16T02:30:37.947Z,79.12
2022-08-16T02:33:06.584Z,79.29
2022-08-16T02:35:49.764Z,79.11
2022-08-16T02:38:23.591Z,79.34
2022-08-16T02:40:50.686Z,79.35
2022-08-16T02:43:18.403Z,79.72
2022-08-16T02:45:45.212Z,79.70
2022-08-16T02:48:29.262Z,79.16
2022-08-16T02:51:05.832Z,79.15
2022-08-16T02:53:37.830Z,79.20
2022-08-16T02:56:05.467Z,79.05
2022-08-16T02:58:36.912Z,79.12
2022-08-16T03:01:03.647Z,79.08
2022-08-16T03:04:41.434Z,78.97
2022-08-16T03:06:42.106Z,78.17
2022-08-16T03:09:16.275Z,78.06
2022-08-16T03:11:47.659Z,78.07
2022-08-16T03:14:21.157Z,78.41
2022-08-16T03:16:58.598Z,77.88
2022-08-16T03:19:46.940Z,78.13
2022-08-16T03:22:19.437Z,78.10
2022-08-16T03:24:57.635Z,78.29
2022-08-16T03:27:25.413Z,78.50
2022-08-16T03:29:57.824Z,78.27
2022-08-16T03:32:24.862Z,78.34
2022-08-16T03:34:52.913Z,78.35
2022-08-16T03:37:19.516Z,78.96
2022-08-16T03:39:47.145Z,78.64
2022-08-16T03:42:20.399Z,78.58
2022-08-16T03:44:49.866Z,79.01
2022-08-16T03:47:19.798Z,78.97
2022-08-16T03:49:51.954Z,79.48
2022-08-16T03:52:23.687Z,79.48
2022-08-16T03:54:57.938Z,79.54
2022-08-16T03:57:31.851Z,79.15
2022-08-16T04:00:35.090Z,78.44
2022-08-16T04:03:07.708Z,78.66
2022-08-16T04:05:39.220Z,79.74
2022-08-16T04:08:23.487Z,79.47
2022-08-16T04:10:54.281Z,79.54
2022-08-16T04:14:01.718Z,79.66
2022-08-16T04:16:27.292Z,80.10
2022-08-16T04:19:04.838Z,80.45
2022-08-16T04:21:33.065Z,81.29
2022-08-16T04:24:01.003Z,80.99
2022-08-16T04:26:30.877Z,80.79
2022-08-16T04:29:18.280Z,80.65
2022-08-16T04:31:45.225Z,80.29
2022-08-16T04:34:12.491Z,80.10
2022-08-16T04:36:39.759Z,79.84
2022-08-16T04:39:06.515Z,78.95
2022-08-16T04:41:37.426Z,78.49
2022-08-16T04:44:32.466Z,78.14
2022-08-16T04:47:02.408Z,77.92
2022-08-16T04:49:38.716Z,77.11
2022-08-16T04:52:35.166Z,77.50
2022-08-16T04:54:59.261Z,77.29
2022-08-16T04:57:29.991Z,77.11
2022-08-16T04:59:57.200Z,76.34
2022-08-16T05:02:40.992Z,77.49
2022-08-16T05:05:17.883Z,76.60
2022-08-16T05:07:58.474Z,77.04
2022-08-16T05:10:27.931Z,76.16
2022-08-16T05:12:54.547Z,76.27
2022-08-16T05:15:23.572Z,75.45
2022-08-16T05:17:58.884Z,75.46
2022-08-16T05:20:35.691Z,74.57
2022-08-16T05:23:13.765Z,74.81
2022-08-16T05:25:48.282Z,74.07
2022-08-16T05:28:17.060Z,73.45
2022-08-16T05:30:50.427Z,72.55
2022-08-16T05:33:21.439Z,72.69
2022-08-16T05:35:55.139Z,71.49
2022-08-16T05:38:45.968Z,71.97
2022-08-16T05:41:14.507Z,72.11
2022-08-16T05:43:46.426Z,71.61
2022-08-16T05:46:29.581Z,72.24
2022-08-16T05:49:03.624Z,72.06
2022-08-16T05:51:38.306Z,71.65
2022-08-16T05:54:06.820Z,71.21
2022-08-16T05:56:34.201Z,70.31
2022-08-16T05:59:06.126Z,70.61
2022-08-16T06:01:38.290Z,70.49
2022-08-16T06:04:12.675Z,70.19
2022-08-16T06:06:55.877Z,69.12
2022-08-16T06:09:23.546Z,68.79
2022-08-16T06:11:50.870Z,68.15
2022-08-16T06:14:17.689Z,68.45
2022-08-16T06:16:44.724Z,68.07
2022-08-16T06:19:18.308Z,67.42
2022-08-16T06:21:56.963Z,67.48
2022-08-16T06:24:54.572Z,66.67
2022-08-16T06:27:10.685Z,65.79
2022-08-16T06:29:37.366Z,66.10
2022-08-16T06:32:04.461Z,66.01
2022-08-16T06:34:54.926Z,64.87
2022-08-16T06:37:18.277Z,64.04
2022-08-16T06:39:49.328Z,63.77
2022-08-16T06:42:39.486Z,64.03
2022-08-16T06:45:31.144Z,63.77
2022-08-16T06:48:10.522Z,63.92
2022-08-16T06:50:37.850Z,62.92
2022-08-16T06:53:08.867Z,63.44
2022-08-16T06:55:38.640Z,64.09
2022-08-16T06:58:22.011Z,64.53
2022-08-16T07:00:51.465Z,65.04
2022-08-16T07:03:27.739Z,65.62
2022-08-16T07:05:59.086Z,65.37
2022-08-16T07:08:31.364Z,64.76
2022-08-16T07:10:58.900Z,65.42
2022-08-16T07:14:00.279Z,64.67
2022-08-16T07:16:20.576Z,64.25
2022-08-16T07:18:59.170Z,63.73
2022-08-16T07:21:46.348Z,63.17
2022-08-16T07:24:30.375Z,63.41
2022-08-16T07:27:04.523Z,62.22
2022-08-16T07:29:36.126Z,62.51
2022-08-16T07:32:07.617Z,62.35
2022-08-16T07:34:34.952Z,61.78
2022-08-16T07:37:07.850Z,62.15
2022-08-16T07:39:54.826Z,61.12
2022-08-16T07:42:34.806Z,61.34
2022-08-16T07:45:03.612Z,62.26
2022-08-16T07:47:36.708Z,61.66
2022-08-16T07:50:05.404Z,60.05
2022-08-16T07:52:34.998Z,59.87
2022-08-16T07:55:06.274Z,59.19
2022-08-16T07:57:37.934Z,58.19
2022-08-16T08:00:18.536Z,58.70
2022-08-16T08:02:49.420Z,59.23
2022-08-16T08:05:25.509Z,58.56
2022-08-16T08:08:11.972Z,56.67
2022-08-16T08:10:51.199Z,57.91
2022-08-16T08:13:18.581Z,58.41
2022-08-16T08:15:53.027Z,56.84
2022-08-16T08:18:30.025Z,56.29
2022-08-16T08:20:59.885Z,55.99
2022-08-16T08:23:29.518Z,53.89
2022-08-16T08:25:56.252Z,52.91
2022-08-16T08:28:26.684Z,52.35
2022-08-16T08:31:01.317Z,50.25
2022-08-16T08:33:31.684Z,52.33
2022-08-16T08:36:00.677Z,52.99
2022-08-16T08:38:45.985Z,53.11
2022-08-16T08:41:18.661Z,52.69
2022-08-16T08:43:46.632Z,52.54
2022-08-16T08:46:18.412Z,52.08
2022-08-16T08:48:59.644Z,50.59
2022-08-16T08:51:31.762Z,49.23
2022-08-16T08:53:59.732Z,49.91
2022-08-16T08:56:34.705Z,48.65
2022-08-16T08:59:20.347Z,49.49
2022-08-16T09:01:57.175Z,48.36
2022-08-16T09:04:25.393Z,48.81
2022-08-16T09:06:54.003Z,48.03
2022-08-16T09:09:24.513Z,49.54
2022-08-16T09:12:06.028Z,47.79
2022-08-16T09:14:38.824Z,48.54
2022-08-16T09:17:38.372Z,49.10
2022-08-16T09:20:05.161Z,49.51
2022-08-16T09:22:32.995Z,51.04
2022-08-16T09:25:09.945Z,49.13
2022-08-16T09:27:56.479Z,49.63
2022-08-16T09:30:34.183Z,50.95
2022-08-16T09:33:10.566Z,48.81
2022-08-16T09:35:38.972Z,49.12
2022-08-16T09:38:08.391Z,45.74
2022-08-16T09:40:42.802Z,45.71
2022-08-16T09:43:46.511Z,44.25
2022-08-16T09:46:01.687Z,45.08
2022-08-16T09:48:36.882Z,46.00
2022-08-16T09:51:12.878Z,45.57
2022-08-16T09:53:39.484Z,46.02
2022-08-16T09:56:11.445Z,47.40
2022-08-16T09:59:03.718Z,47.61
2022-08-16T10:01:24.712Z,47.12
2022-08-16T10:04:01.732Z,47.57
2022-08-16T10:06:33.338Z,48.13
2022-08-16T10:09:08.315Z,47.88
2022-08-16T10:11:55.946Z,48.36
2022-08-16T10:14:37.819Z,47.88
2022-08-16T10:17:04.831Z,48.65
2022-08-16T10:19:31.914Z,48.39
2022-08-16T10:21:58.856Z,48.25
2022-08-16T10:24:28.613Z,46.07
2022-08-16T10:27:19.482Z,46.08
2022-08-16T10:30:00.668Z,46.58
2022-08-16T10:32:30.385Z,46.69
2022-08-16T10:34:57.588Z,44.48
2022-08-16T10:37:35.668Z,44.81
2022-08-16T10:40:28.576Z,45.50
2022-08-16T10:42:53.616Z,45.06
2022-08-16T10:45:20.708Z,45.13
2022-08-16T10:47:49.599Z,43.37
2022-08-16T10:50:28.595Z,43.73
2022-08-16T10:52:59.421Z,46.50
2022-08-16T10:55:44.426Z,45.00
2022-08-16T10:58:13.715Z,44.46
2022-08-16T11:00:43.761Z,45.36
2022-08-16T11:06:00.022Z,44.11
2022-08-16T11:08:35.893Z,44.95
2022-08-16T11:11:11.540Z,43.59
2022-08-16T11:17:02.125Z,43.56
2022-08-16T11:19:15.582Z,43.10
2022-08-16T11:24:42.134Z,43.33
2022-08-16T11:27:24.133Z,42.95
2022-08-16T11:29:55.071Z,40.56
2022-08-16T11:32:31.212Z,39.63
2022-08-16T11:35:16.150Z,39.91
2022-08-16T11:38:06.014Z,40.96
2022-08-16T11:40:58.852Z,40.24
2022-08-16T11:43:30.011Z,38.24
2022-08-16T11:45:58.292Z,38.03
2022-08-16T11:48:29.512Z,39.85
2022-08-16T11:50:56.463Z,39.54
2022-08-16T11:53:24.348Z,39.58
2022-08-16T11:55:54.866Z,38.21
2022-08-16T11:58:22.235Z,39.83
